createdAt,value
2019-02-19T00:00:12.956Z,92
2019-02-19T00:01:13.198Z,92.76
2019-02-19T00:02:13.185Z,92.76
2019-02-19T00:03:13.188Z,92.66
2019-02-19T00:04:12.933Z,92.76
2019-02-19T00:05:13.161Z,93.61
2019-02-19T00:06:13.161Z,93.13
2019-02-19T00:07:12.890Z,92.57
2019-02-19T00:08:12.883Z,92
2019-02-19T00:09:13.129Z,91.33
2019-02-19T00:10:13.100Z,91.05
2019-02-19T00:11:12.846Z,90.77
2019-02-19T00:12:12.834Z,91.05
2019-02-19T00:13:13.085Z,91.33
2019-02-19T00:14:13.070Z,91.05
2019-02-19T00:15:12.823Z,91.43
2019-02-19T00:16:13.053Z,91.43
2019-02-19T00:17:13.053Z,91.62
2019-02-19T00:18:12.815Z,92.09
2019-02-19T00:19:12.778Z,92.19
2019-02-19T00:20:12.762Z,92.94
2019-02-19T00:21:12.993Z,93.61
2019-02-19T00:22:12.995Z,93.23
2019-02-19T00:23:12.997Z,93.51
2019-02-19T00:24:12.971Z,93.51
2019-02-19T00:25:12.711Z,92.28
2019-02-19T00:26:12.696Z,92.57
2019-02-19T00:27:12.933Z,91.9
2019-02-19T00:28:12.932Z,91.81
2019-02-19T00:29:12.666Z,91.71
2019-02-19T00:30:12.903Z,92.19
2019-02-19T00:31:12.643Z,92
2019-02-19T00:32:12.650Z,92.28
2019-02-19T00:33:12.624Z,92.66
2019-02-19T00:34:12.616Z,93.04
2019-02-19T00:35:12.602Z,93.51
2019-02-19T00:36:12.846Z,93.61
2019-02-19T00:37:12.858Z,94.37
2019-02-19T00:38:12.832Z,93.99
2019-02-19T00:39:12.819Z,94.27
2019-02-19T00:40:12.804Z,94.37
2019-02-19T00:41:12.802Z,94.84
2019-02-19T00:42:12.865Z,94.56
2019-02-19T00:43:12.770Z,94.74
2019-02-19T00:44:12.524Z,94.89
2019-02-19T00:45:18.879Z,95.26
2019-02-19T00:46:12.496Z,96.21
2019-02-19T00:47:12.734Z,95.93
2019-02-19T00:48:12.474Z,95.93
2019-02-19T00:49:12.453Z,95.74
2019-02-19T00:50:12.695Z,96.02
2019-02-19T00:51:12.687Z,96.21
2019-02-19T00:52:12.431Z,96.5
2019-02-19T00:53:12.422Z,96.69
2019-02-19T00:54:12.668Z,95.64
2019-02-19T00:55:12.654Z,96.69
2019-02-19T00:56:12.631Z,96.69
2019-02-19T00:57:12.630Z,96.97
2019-02-19T00:58:12.617Z,97.16
2019-02-19T00:59:12.364Z,97.35
2019-02-19T01:00:12.601Z,97.35
2019-02-19T01:01:12.339Z,97.16
2019-02-19T01:02:12.336Z,97.54
2019-02-19T01:03:12.579Z,97.35
2019-02-19T01:04:12.300Z,96.59
2019-02-19T01:05:12.292Z,97.16
2019-02-19T01:06:12.530Z,97.73
2019-02-19T01:07:12.538Z,97.44
2019-02-19T01:08:12.537Z,97.35
2019-02-19T01:09:12.516Z,97.35
2019-02-19T01:10:12.514Z,97.35
2019-02-19T01:11:12.483Z,97.82
2019-02-19T01:12:12.233Z,98.11
2019-02-19T01:13:12.564Z,98.01
2019-02-19T01:14:12.451Z,97.35
2019-02-19T01:15:12.192Z,97.92
2019-02-19T01:16:12.919Z,98.01
2019-02-19T01:17:12.421Z,98.49
2019-02-19T01:18:12.156Z,98.58
2019-02-19T01:19:12.146Z,98.01
2019-02-19T01:20:12.147Z,97.92
2019-02-19T01:21:12.122Z,97.92
2019-02-19T01:22:12.397Z,98.11
2019-02-19T01:23:12.348Z,98.3
2019-02-19T01:24:12.345Z,98.11
2019-02-19T01:25:12.349Z,97.82
2019-02-19T01:26:12.067Z,97.92
2019-02-19T01:27:12.315Z,98.2
2019-02-19T01:28:12.299Z,97.82
2019-02-19T01:29:12.038Z,98.11
2019-02-19T01:30:12.022Z,98.11
2019-02-19T01:31:12.018Z,98.01
2019-02-19T01:32:12.261Z,97.92
2019-02-19T01:33:12.246Z,98.01
2019-02-19T01:34:12.243Z,97.73
2019-02-19T01:35:11.982Z,98.3
2019-02-19T01:36:12.229Z,97.82
2019-02-19T01:37:11.950Z,98.3
2019-02-19T01:38:12.187Z,98.01
2019-02-19T01:39:11.932Z,98.2
2019-02-19T01:40:12.178Z,98.01
2019-02-19T01:41:12.156Z,97.92
2019-02-19T01:42:12.149Z,98.58
2019-02-19T01:43:11.889Z,97.82
2019-02-19T01:44:12.144Z,98.58
2019-02-19T01:45:12.120Z,98.16
2019-02-19T01:46:12.120Z,97.97
2019-02-19T01:47:11.843Z,98.06
2019-02-19T01:48:12.090Z,97.78
2019-02-19T01:49:11.827Z,97.59
2019-02-19T01:50:12.056Z,97.3
2019-02-19T01:51:11.817Z,96.83
2019-02-19T01:52:12.047Z,96.73
2019-02-19T01:53:11.784Z,97.02
2019-02-19T01:54:11.768Z,96.07
2019-02-19T01:55:12.021Z,96.26
2019-02-19T01:56:11.751Z,95.88
2019-02-19T01:57:11.994Z,95.6
2019-02-19T01:58:11.768Z,95.12
2019-02-19T01:59:11.716Z,96.26
2019-02-19T02:00:11.957Z,95.22
2019-02-19T02:01:11.950Z,94.46
2019-02-19T02:02:11.934Z,94.18
2019-02-19T02:03:11.673Z,94.56
2019-02-19T02:04:11.920Z,94.18
2019-02-19T02:05:11.657Z,94.74
2019-02-19T02:06:11.890Z,94.08
2019-02-19T02:07:11.890Z,94.08
2019-02-19T02:08:11.877Z,94.37
2019-02-19T02:09:11.864Z,94.37
2019-02-19T02:10:11.867Z,94.37
2019-02-19T02:11:11.847Z,94.56
2019-02-19T02:12:11.583Z,94.18
2019-02-19T02:13:11.824Z,94.46
2019-02-19T02:14:11.811Z,94.93
2019-02-19T02:15:11.810Z,94.27
2019-02-19T02:16:11.543Z,94.56
2019-02-19T02:17:11.801Z,94.08
2019-02-19T02:18:11.778Z,94.08
2019-02-19T02:19:11.535Z,94.56
2019-02-19T02:20:11.750Z,94.56
2019-02-19T02:21:11.736Z,94.46
2019-02-19T02:22:11.722Z,94.46
2019-02-19T02:23:11.475Z,95.03
2019-02-19T02:24:11.706Z,95.88
2019-02-19T02:25:11.710Z,96.17
2019-02-19T02:26:11.703Z,96.17
2019-02-19T02:27:11.685Z,96.36
2019-02-19T02:28:11.665Z,96.26
2019-02-19T02:29:11.674Z,96.73
2019-02-19T02:30:11.649Z,97.11
2019-02-19T02:31:11.403Z,97.3
2019-02-19T02:32:11.628Z,97.11
2019-02-19T02:33:11.370Z,96.83
2019-02-19T02:34:11.611Z,97.59
2019-02-19T02:35:13.848Z,97.68
2019-02-19T02:36:11.587Z,97.59
2019-02-19T02:37:11.635Z,97.3
2019-02-19T02:38:11.579Z,97.59
2019-02-19T02:39:11.555Z,97.21
2019-02-19T02:40:11.305Z,97.11
2019-02-19T02:41:11.298Z,97.3
2019-02-19T02:42:11.523Z,96.64
2019-02-19T02:43:11.516Z,97.02
2019-02-19T02:44:11.252Z,96.92
2019-02-19T02:45:11.491Z,96.55
2019-02-19T02:46:11.496Z,96.36
2019-02-19T02:47:11.247Z,96.88
2019-02-19T02:48:11.223Z,96.45
2019-02-19T02:49:11.457Z,96.88
2019-02-19T02:50:11.452Z,97.92
2019-02-19T02:51:11.454Z,97.44
2019-02-19T02:52:11.183Z,98.11
2019-02-19T02:53:11.412Z,98.11
2019-02-19T02:54:11.152Z,98.49
2019-02-19T02:55:11.457Z,98.11
2019-02-19T02:56:11.377Z,98.01
2019-02-19T02:57:11.374Z,98.2
2019-02-19T02:58:11.360Z,98.11
2019-02-19T02:59:11.093Z,97.92
2019-02-19T03:00:11.339Z,97.73
2019-02-19T03:01:11.329Z,97.82
2019-02-19T03:02:11.319Z,97.92
2019-02-19T03:03:11.055Z,98.49
2019-02-19T03:04:11.303Z,97.35
2019-02-19T03:05:11.332Z,97.73
2019-02-19T03:06:11.267Z,98.3
2019-02-19T03:07:11.007Z,97.92
2019-02-19T03:08:11.004Z,97.82
2019-02-19T03:09:11.248Z,98.2
2019-02-19T03:10:10.974Z,98.3
2019-02-19T03:11:11.221Z,97.44
2019-02-19T03:12:11.207Z,97.44
2019-02-19T03:13:11.197Z,97.59
2019-02-19T03:14:10.935Z,97.4
2019-02-19T03:15:10.949Z,96.88
2019-02-19T03:16:10.913Z,97.54
2019-02-19T03:17:10.911Z,98.49
2019-02-19T03:18:11.140Z,98.2
2019-02-19T03:19:11.164Z,97.44
2019-02-19T03:20:10.871Z,96.97
2019-02-19T03:21:11.106Z,97.25
2019-02-19T03:22:11.126Z,97.54
2019-02-19T03:23:11.108Z,98.3
2019-02-19T03:24:10.832Z,97.92
2019-02-19T03:25:11.070Z,97.82
2019-02-19T03:26:10.818Z,97.54
2019-02-19T03:27:11.044Z,97.92
2019-02-19T03:28:10.797Z,98.49
2019-02-19T03:29:11.039Z,99.15
2019-02-19T03:30:10.858Z,99.52
2019-02-19T03:31:11.015Z,99.9
2019-02-19T03:32:10.995Z,99.9
2019-02-19T03:33:10.987Z,99.66
2019-02-19T03:34:10.742Z,99.99
2019-02-19T03:35:10.975Z,99.62
2019-02-19T03:36:10.975Z,99.99
2019-02-19T03:37:10.939Z,99.99
2019-02-19T03:38:10.675Z,99.99
2019-02-19T03:39:10.918Z,99.99
2019-02-19T03:40:10.657Z,99.99
2019-02-19T03:41:10.921Z,99.99
2019-02-19T03:42:10.637Z,99.99
2019-02-19T03:43:10.658Z,99.99
2019-02-19T03:44:10.866Z,99.99
2019-02-19T03:45:10.855Z,99.99
2019-02-19T03:46:14.571Z,99.99
2019-02-19T03:47:10.831Z,99.99
2019-02-19T03:48:10.569Z,99.99
2019-02-19T03:49:10.815Z,99.99
2019-02-19T03:50:10.569Z,99.99
2019-02-19T03:51:10.535Z,99.99
2019-02-19T03:52:10.778Z,99.99
2019-02-19T03:53:10.513Z,99.99
2019-02-19T03:54:10.761Z,99.99
2019-02-19T03:55:10.740Z,99.99
2019-02-19T03:56:10.493Z,99.99
2019-02-19T03:57:10.720Z,99.99
2019-02-19T03:58:10.708Z,99.99
2019-02-19T03:59:10.753Z,99.99
2019-02-19T04:00:10.700Z,99.99
2019-02-19T04:01:10.674Z,99.99
2019-02-19T04:02:10.667Z,99.99
2019-02-19T04:03:10.650Z,99.99
2019-02-19T04:04:10.644Z,99.99
2019-02-19T04:05:10.641Z,99.99
2019-02-19T04:06:10.621Z,99.99
2019-02-19T04:07:10.612Z,99.99
2019-02-19T04:08:10.606Z,99.99
2019-02-19T04:09:10.350Z,99.99
2019-02-19T04:10:10.325Z,99.99
2019-02-19T04:11:10.318Z,99.99
2019-02-19T04:12:10.562Z,99.71
2019-02-19T04:13:10.541Z,99.52
2019-02-19T04:14:10.539Z,98.68
2019-02-19T04:15:10.279Z,98.63
2019-02-19T04:16:10.534Z,98.3
2019-02-19T04:17:10.496Z,98.16
2019-02-19T04:18:10.496Z,98.06
2019-02-19T04:19:10.481Z,98.35
2019-02-19T04:20:10.467Z,98.35
2019-02-19T04:21:10.455Z,97.87
2019-02-19T04:22:10.457Z,98.54
2019-02-19T04:23:10.182Z,98.16
2019-02-19T04:24:10.433Z,97.49
2019-02-19T04:25:10.173Z,97.02
2019-02-19T04:26:10.419Z,97.49
2019-02-19T04:27:10.410Z,97.4
2019-02-19T04:28:10.399Z,96.83
2019-02-19T04:29:10.384Z,96.45
2019-02-19T04:30:10.393Z,96.45
2019-02-19T04:31:10.363Z,95.98
2019-02-19T04:32:10.346Z,95.69
2019-02-19T04:33:10.335Z,95.5
2019-02-19T04:34:10.381Z,95.5
2019-02-19T04:35:11.145Z,95.22
2019-02-19T04:36:10.314Z,95.5
2019-02-19T04:37:10.303Z,94.74
2019-02-19T04:38:10.044Z,94.65
2019-02-19T04:39:10.277Z,95.03
2019-02-19T04:40:10.009Z,95.03
2019-02-19T04:41:10.267Z,94.93
2019-02-19T04:42:10.232Z,95.03
2019-02-19T04:43:09.985Z,94.84
2019-02-19T04:44:10.263Z,94.93
2019-02-19T04:45:10.210Z,94.74
2019-02-19T04:46:10.191Z,95.12
2019-02-19T04:47:09.927Z,94.84
2019-02-19T04:48:10.177Z,94.37
2019-02-19T04:49:09.931Z,94.74
2019-02-19T04:50:09.898Z,94.56
2019-02-19T04:51:09.897Z,94.84
2019-02-19T04:52:10.136Z,95.22
2019-02-19T04:53:10.125Z,95.22
2019-02-19T04:54:09.875Z,95.41
2019-02-19T04:55:10.289Z,95.22
2019-02-19T04:56:10.098Z,95.03
2019-02-19T04:57:09.826Z,94.74
2019-02-19T04:58:09.821Z,95.31
2019-02-19T04:59:10.078Z,94.46
2019-02-19T05:00:10.044Z,94.56
2019-02-19T05:01:10.046Z,94.93
2019-02-19T05:02:10.024Z,95.22
2019-02-19T05:03:10.012Z,94.93
2019-02-19T05:04:10.000Z,94.74
2019-02-19T05:05:09.760Z,95.03
2019-02-19T05:06:09.749Z,95.88
2019-02-19T05:07:09.981Z,96.45
2019-02-19T05:08:09.963Z,95.88
2019-02-19T05:09:09.948Z,95.98
2019-02-19T05:10:09.973Z,95.98
2019-02-19T05:11:09.685Z,95.69
2019-02-19T05:12:09.671Z,95.22
2019-02-19T05:13:09.659Z,96.07
2019-02-19T05:14:09.906Z,96.26
2019-02-19T05:15:09.646Z,97.02
2019-02-19T05:16:09.630Z,95.88
2019-02-19T05:17:09.950Z,96.55
2019-02-19T05:18:09.854Z,96.36
2019-02-19T05:19:09.852Z,95.79
2019-02-19T05:20:09.608Z,97.02
2019-02-19T05:21:09.819Z,96.83
2019-02-19T05:22:09.821Z,96.92
2019-02-19T05:23:10.001Z,96.92
2019-02-19T05:24:09.801Z,96.83
2019-02-19T05:25:09.790Z,96.92
2019-02-19T05:26:09.775Z,96.45
2019-02-19T05:27:09.764Z,97.4
2019-02-19T05:28:09.761Z,97.59
2019-02-19T05:29:09.736Z,97.97
2019-02-19T05:30:09.787Z,97.59
2019-02-19T05:31:09.474Z,97.4
2019-02-19T05:32:09.713Z,97.59
2019-02-19T05:33:09.447Z,97.4
2019-02-19T05:34:09.438Z,97.3
2019-02-19T05:35:09.698Z,97.54
2019-02-19T05:36:11.363Z,97.11
2019-02-19T05:37:09.669Z,97.3
2019-02-19T05:38:09.635Z,97.59
2019-02-19T05:39:09.380Z,97.44
2019-02-19T05:40:09.632Z,97.11
2019-02-19T05:41:09.608Z,97.59
2019-02-19T05:42:09.601Z,97.3
2019-02-19T05:43:09.601Z,96.92
2019-02-19T05:44:09.333Z,96.83
2019-02-19T05:45:09.598Z,97.21
2019-02-19T05:46:09.553Z,97.3
2019-02-19T05:47:09.317Z,97.21
2019-02-19T05:48:09.535Z,97.3
2019-02-19T05:49:09.532Z,97.49
2019-02-19T05:50:09.275Z,96.83
2019-02-19T05:51:09.513Z,96.92
2019-02-19T05:52:09.502Z,97.11
2019-02-19T05:53:09.481Z,97.21
2019-02-19T05:54:09.486Z,97.11
2019-02-19T05:55:09.465Z,97.21
2019-02-19T05:56:09.458Z,97.21
2019-02-19T05:57:09.198Z,97.4
2019-02-19T05:58:09.438Z,96.73
2019-02-19T05:59:09.431Z,96.73
2019-02-19T06:00:09.408Z,96.36
2019-02-19T06:01:09.151Z,97.11
2019-02-19T06:02:09.404Z,97.02
2019-02-19T06:03:09.127Z,96.36
2019-02-19T06:04:09.372Z,95.98
2019-02-19T06:05:09.359Z,96.07
2019-02-19T06:06:09.097Z,96.36
2019-02-19T06:07:09.092Z,95.31
2019-02-19T06:08:09.084Z,96.07
2019-02-19T06:09:09.073Z,95.79
2019-02-19T06:10:09.316Z,96.07
2019-02-19T06:11:09.321Z,95.31
2019-02-19T06:12:09.289Z,95.12
2019-02-19T06:13:09.023Z,95.03
2019-02-19T06:14:09.270Z,94.56
2019-02-19T06:15:09.260Z,94.37
2019-02-19T06:16:09.256Z,94.65
2019-02-19T06:17:08.984Z,94.37
2019-02-19T06:18:09.231Z,94.27
2019-02-19T06:19:09.230Z,94.18
2019-02-19T06:20:09.213Z,94.56
2019-02-19T06:21:08.945Z,94.27
2019-02-19T06:22:08.936Z,94.46
2019-02-19T06:23:09.177Z,93.7
2019-02-19T06:24:08.928Z,93.89
2019-02-19T06:25:09.255Z,94.56
2019-02-19T06:26:08.900Z,94.37
2019-02-19T06:27:09.128Z,94.65
2019-02-19T06:28:08.889Z,94.08
2019-02-19T06:29:09.113Z,94.56
2019-02-19T06:30:08.858Z,94.37
2019-02-19T06:31:09.094Z,94.56
2019-02-19T06:32:09.075Z,93.8
2019-02-19T06:33:09.073Z,93.89
2019-02-19T06:34:09.051Z,93.8
2019-02-19T06:35:08.811Z,93.8
2019-02-19T06:36:09.045Z,93.99
2019-02-19T06:37:09.026Z,93.61
2019-02-19T06:38:09.020Z,93.8
2019-02-19T06:39:09.001Z,93.99
2019-02-19T06:40:08.994Z,93.61
2019-02-19T06:41:08.735Z,93.56
2019-02-19T06:42:08.990Z,92.71
2019-02-19T06:43:08.744Z,92.8
2019-02-19T06:44:08.705Z,92.99
2019-02-19T06:45:08.944Z,92.8
2019-02-19T06:46:08.933Z,92.71
2019-02-19T06:47:09.611Z,92.71
2019-02-19T06:48:08.678Z,92.61
2019-02-19T06:49:08.651Z,93.08
2019-02-19T06:50:08.901Z,92.33
2019-02-19T06:51:08.887Z,92.61
2019-02-19T06:52:08.873Z,92.23
2019-02-19T06:53:08.875Z,92.23
2019-02-19T06:54:08.871Z,92.04
2019-02-19T06:55:08.603Z,91.38
2019-02-19T06:56:08.850Z,91.09
2019-02-19T06:57:08.822Z,90.91
2019-02-19T06:58:08.825Z,91.19
2019-02-19T06:59:08.832Z,90.81
2019-02-19T07:00:08.808Z,90.57
2019-02-19T07:01:08.798Z,90.19
2019-02-19T07:02:08.794Z,90.19
2019-02-19T07:03:08.780Z,89.15
2019-02-19T07:04:08.831Z,88.68
2019-02-19T07:05:08.513Z,88.77
2019-02-19T07:06:08.756Z,87.73
2019-02-19T07:07:08.738Z,87.54
2019-02-19T07:08:08.487Z,87.73
2019-02-19T07:09:08.471Z,87.45
2019-02-19T07:10:08.713Z,86.97
2019-02-19T07:11:08.706Z,87.06
2019-02-19T07:12:08.444Z,86.78
2019-02-19T07:13:08.680Z,86.54
2019-02-19T07:14:08.673Z,86.25
2019-02-19T07:15:08.661Z,85.78
2019-02-19T07:16:08.419Z,85.97
2019-02-19T07:17:15.423Z,86.07
2019-02-19T07:18:08.634Z,86.16
2019-02-19T07:19:08.623Z,86.16
2019-02-19T07:20:08.622Z,86.16
2019-02-19T07:21:08.610Z,85.78
2019-02-19T07:22:08.602Z,85.78
2019-02-19T07:23:08.611Z,85.97
2019-02-19T07:24:08.585Z,85.68
2019-02-19T07:25:08.603Z,85.78
2019-02-19T07:26:08.319Z,85.87
2019-02-19T07:27:08.312Z,85.68
2019-02-19T07:28:08.554Z,85.02
2019-02-19T07:29:08.302Z,84.92
2019-02-19T07:30:08.547Z,85.4
2019-02-19T07:31:08.564Z,85.87
2019-02-19T07:32:08.515Z,85.87
2019-02-19T07:33:08.546Z,85.4
2019-02-19T07:34:08.512Z,85.78
2019-02-19T07:35:08.492Z,85.78
2019-02-19T07:36:08.491Z,85.87
2019-02-19T07:37:08.234Z,85.97
2019-02-19T07:38:08.220Z,85.49
2019-02-19T07:39:08.459Z,85.11
2019-02-19T07:40:08.215Z,85.11
2019-02-19T07:41:08.435Z,85.02
2019-02-19T07:42:08.454Z,85.4
2019-02-19T07:43:08.433Z,85.3
2019-02-19T07:44:08.158Z,84.64
2019-02-19T07:45:08.402Z,84.83
2019-02-19T07:46:08.144Z,84.55
2019-02-19T07:47:08.392Z,84.45
2019-02-19T07:48:08.130Z,83.97
2019-02-19T07:49:08.375Z,83.69
2019-02-19T07:50:08.366Z,83.97
2019-02-19T07:51:08.351Z,84.17
2019-02-19T07:52:08.341Z,84.36
2019-02-19T07:53:08.158Z,83.97
2019-02-19T07:54:08.133Z,84.17
2019-02-19T07:55:08.327Z,84.07
2019-02-19T07:56:08.312Z,83.69
2019-02-19T07:57:08.295Z,83.69
2019-02-19T07:58:08.046Z,83.59
2019-02-19T07:59:08.047Z,83.31
2019-02-19T08:00:08.294Z,83.69
2019-02-19T08:01:08.020Z,82.88
2019-02-19T08:02:08.015Z,82.59
2019-02-19T08:03:08.260Z,82.4
2019-02-19T08:04:08.249Z,82.4
2019-02-19T08:05:08.231Z,82.21
2019-02-19T08:06:08.257Z,81.74
2019-02-19T08:07:08.217Z,82.12
2019-02-19T08:08:08.207Z,82.03
2019-02-19T08:09:08.216Z,82.03
2019-02-19T08:10:08.199Z,81.55
2019-02-19T08:11:08.189Z,81.36
2019-02-19T08:12:08.171Z,81.55
2019-02-19T08:13:08.184Z,81.45
2019-02-19T08:14:08.161Z,81.55
2019-02-19T08:15:08.166Z,81.17
2019-02-19T08:16:08.142Z,80.98
2019-02-19T08:17:08.136Z,80.6
2019-02-19T08:18:07.882Z,80.26
2019-02-19T08:19:07.876Z,79.41
2019-02-19T08:20:17.472Z,78.08
2019-02-19T08:21:08.115Z,77.89
2019-02-19T08:22:07.859Z,77.89
2019-02-19T08:23:08.092Z,77.51
2019-02-19T08:24:07.840Z,77.41
2019-02-19T08:25:07.830Z,76.84
2019-02-19T08:26:08.074Z,77.41
2019-02-19T08:27:08.064Z,77.51
2019-02-19T08:28:08.063Z,77.7
2019-02-19T08:29:16.155Z,77.89
2019-02-19T08:30:08.098Z,77.89
2019-02-19T08:31:08.035Z,77.98
2019-02-19T08:32:08.031Z,77.6
2019-02-19T08:33:07.792Z,77.98
2019-02-19T08:34:07.782Z,77.64
2019-02-19T08:35:08.017Z,77.26
2019-02-19T08:36:08.006Z,77.36
2019-02-19T08:37:09.096Z,77.45
2019-02-19T08:38:07.984Z,77.73
2019-02-19T08:39:08.001Z,77.45
2019-02-19T08:40:07.980Z,77.07
2019-02-19T08:41:07.975Z,77.36
2019-02-19T08:42:07.718Z,76.69
2019-02-19T08:43:07.959Z,75.93
2019-02-19T08:44:08.475Z,75.55
2019-02-19T08:45:07.703Z,75.45
2019-02-19T08:46:07.709Z,75.21
2019-02-19T08:47:07.679Z,74.92
2019-02-19T08:48:07.928Z,74.92
2019-02-19T08:49:07.666Z,74.92
2019-02-19T08:50:07.915Z,74.82
2019-02-19T08:51:07.663Z,75.02
2019-02-19T08:52:07.902Z,74.54
2019-02-19T08:53:07.891Z,74.16
2019-02-19T08:54:07.891Z,74.35
2019-02-19T08:55:07.882Z,74.26
2019-02-19T08:56:07.635Z,73.78
2019-02-19T08:57:08.671Z,74.07
2019-02-19T08:58:07.856Z,73.97
2019-02-19T08:59:07.860Z,74.07
2019-02-19T09:00:07.867Z,73.78
2019-02-19T09:01:07.837Z,73.3
2019-02-19T09:02:07.851Z,73.11
2019-02-19T09:03:07.841Z,73.02
2019-02-19T09:04:07.819Z,72.67
2019-02-19T09:05:07.603Z,72.01
2019-02-19T09:06:07.820Z,72.3
2019-02-19T09:07:07.809Z,71.82
2019-02-19T09:08:07.802Z,71.25
2019-02-19T09:09:07.809Z,71.53
2019-02-19T09:10:07.538Z,71.34
2019-02-19T09:11:07.820Z,70.87
2019-02-19T09:12:07.782Z,71.19
2019-02-19T09:13:07.810Z,70.9
2019-02-19T09:14:07.756Z,71.09
2019-02-19T09:15:07.773Z,70.52
2019-02-19T09:16:07.762Z,70.43
2019-02-19T09:17:07.746Z,70.62
2019-02-19T09:18:07.743Z,70.43
2019-02-19T09:19:07.741Z,70.62
2019-02-19T09:20:07.485Z,71.09
2019-02-19T09:21:07.726Z,71.47
2019-02-19T09:22:07.731Z,71
2019-02-19T09:23:07.731Z,70.9
2019-02-19T09:24:11.868Z,71.38
2019-02-19T09:25:07.710Z,71.28
2019-02-19T09:26:07.466Z,70.9
2019-02-19T09:27:07.697Z,70.52
2019-02-19T09:28:07.697Z,70.52
2019-02-19T09:29:07.689Z,71.09
2019-02-19T09:30:07.431Z,71
2019-02-19T09:31:07.677Z,71.19
2019-02-19T09:32:07.682Z,72.24
2019-02-19T09:33:07.448Z,72.24
2019-02-19T09:34:07.718Z,70.81
2019-02-19T09:35:07.662Z,69.76
2019-02-19T09:36:07.661Z,69.85
2019-02-19T09:37:07.643Z,69.85
2019-02-19T09:38:08.442Z,69.76
2019-02-19T09:39:07.636Z,70.9
2019-02-19T09:40:07.648Z,71
2019-02-19T09:41:07.635Z,71
2019-02-19T09:42:07.634Z,70.9
2019-02-19T09:43:07.369Z,70.62
2019-02-19T09:44:07.362Z,69.85
2019-02-19T09:45:07.631Z,69.85
2019-02-19T09:46:07.606Z,69.89
2019-02-19T09:47:07.612Z,70.18
2019-02-19T09:48:07.607Z,70.14
2019-02-19T09:49:07.591Z,70.18
2019-02-19T09:50:07.584Z,69.99
2019-02-19T09:51:07.609Z,69.79
2019-02-19T09:52:07.609Z,69.51
2019-02-19T09:53:07.585Z,69.7
2019-02-19T09:54:07.563Z,69.6
2019-02-19T09:55:07.567Z,68.84
2019-02-19T09:56:07.570Z,68.65
2019-02-19T09:57:07.347Z,69.04
2019-02-19T09:58:07.317Z,69.23
2019-02-19T09:59:07.544Z,69.04
2019-02-19T10:00:07.552Z,68.56
2019-02-19T10:01:07.554Z,68.94
2019-02-19T10:02:07.529Z,68.21
2019-02-19T10:03:07.566Z,68.02
2019-02-19T10:04:07.551Z,67.83
2019-02-19T10:05:07.583Z,67.35
2019-02-19T10:06:07.263Z,67.16
2019-02-19T10:07:07.511Z,66.31
2019-02-19T10:08:07.792Z,66.5
2019-02-19T10:09:07.505Z,67.83
2019-02-19T10:10:07.506Z,66.97
2019-02-19T10:11:07.489Z,66.4
2019-02-19T10:12:07.490Z,67.26
2019-02-19T10:13:07.498Z,67.35
2019-02-19T10:14:07.490Z,67.55
2019-02-19T10:15:07.495Z,67.64
2019-02-19T10:16:07.480Z,67.55
2019-02-19T10:17:07.223Z,67.26
2019-02-19T10:18:12.889Z,67.55
2019-02-19T10:19:07.469Z,68.02
2019-02-19T10:20:07.466Z,67.83
2019-02-19T10:21:07.467Z,67.55
2019-02-19T10:22:07.448Z,66.88
2019-02-19T10:23:07.464Z,67.64
2019-02-19T10:24:07.467Z,67.26
2019-02-19T10:25:07.195Z,67.26
2019-02-19T10:26:07.193Z,67.35
2019-02-19T10:27:07.177Z,68.02
2019-02-19T10:28:07.474Z,67.35
2019-02-19T10:29:07.418Z,67.83
2019-02-19T10:30:07.428Z,67.55
2019-02-19T10:31:07.411Z,67.64
2019-02-19T10:32:08.202Z,67.55
2019-02-19T10:33:07.401Z,67.83
2019-02-19T10:34:07.393Z,67.64
2019-02-19T10:35:07.392Z,67.74
2019-02-19T10:36:07.390Z,67.83
2019-02-19T10:37:07.390Z,67.83
2019-02-19T10:38:07.395Z,68.12
2019-02-19T10:39:07.385Z,68.88
2019-02-19T10:40:07.382Z,68.98
2019-02-19T10:41:07.370Z,68.78
2019-02-19T10:42:07.369Z,68.98
2019-02-19T10:43:07.362Z,68.21
2019-02-19T10:44:07.370Z,68.02
2019-02-19T10:45:07.114Z,67.93
2019-02-19T10:46:07.348Z,67.55
2019-02-19T10:47:07.345Z,67.83
2019-02-19T10:48:07.092Z,67.29
2019-02-19T10:49:07.094Z,67.39
2019-02-19T10:50:07.329Z,66.44
2019-02-19T10:51:07.330Z,67
2019-02-19T10:52:07.322Z,66.91
2019-02-19T10:53:07.321Z,66.34
2019-02-19T10:54:07.316Z,65.86
2019-02-19T10:55:07.324Z,65.48
2019-02-19T10:56:07.312Z,65.61
2019-02-19T10:57:07.319Z,65.42
2019-02-19T10:58:07.308Z,65.52
2019-02-19T10:59:07.306Z,65.23
2019-02-19T11:00:07.313Z,65.13
2019-02-19T11:01:07.299Z,64.94
2019-02-19T11:02:07.042Z,64.75
2019-02-19T11:03:07.288Z,64.85
2019-02-19T11:04:07.290Z,64.56
2019-02-19T11:05:07.030Z,63.8
2019-02-19T11:06:07.041Z,64.09
2019-02-19T11:07:07.036Z,64.02
2019-02-19T11:08:07.061Z,64.12
2019-02-19T11:09:07.322Z,64.4
2019-02-19T11:10:07.270Z,64.18
2019-02-19T11:11:07.261Z,64.12
2019-02-19T11:12:07.263Z,64.12
2019-02-19T11:13:07.007Z,63.92
2019-02-19T11:14:07.017Z,63.92
2019-02-19T11:15:07.249Z,63.92
2019-02-19T11:16:06.998Z,63.92
2019-02-19T11:17:07.019Z,63.35
2019-02-19T11:18:07.237Z,63.07
2019-02-19T11:19:07.241Z,62.88
2019-02-19T11:20:07.254Z,62.71
2019-02-19T11:21:06.986Z,62.91
2019-02-19T11:22:06.978Z,62.81
2019-02-19T11:23:06.982Z,62.43
2019-02-19T11:24:06.989Z,61.19
2019-02-19T11:25:07.003Z,60.71
2019-02-19T11:26:07.216Z,60.71
2019-02-19T11:27:06.975Z,60.93
2019-02-19T11:28:07.218Z,60.36
2019-02-19T11:29:07.210Z,60.84
2019-02-19T11:30:06.963Z,60.07
2019-02-19T11:31:07.203Z,59.02
2019-02-19T11:32:07.204Z,59.24
2019-02-19T11:33:07.219Z,59.15
2019-02-19T11:34:07.205Z,58.76
2019-02-19T11:35:07.221Z,59.5
2019-02-19T11:36:07.202Z,60.74
2019-02-19T11:37:06.947Z,59.44
2019-02-19T11:38:07.198Z,58.76
2019-02-19T11:39:06.950Z,59.53
2019-02-19T11:40:06.950Z,59.24
2019-02-19T11:41:07.186Z,58.76
2019-02-19T11:42:07.327Z,58.29
2019-02-19T11:43:07.188Z,58
2019-02-19T11:44:07.188Z,58.03
2019-02-19T11:45:06.936Z,58.58
2019-02-19T11:46:07.191Z,59.34
2019-02-19T11:47:07.195Z,60.77
2019-02-19T11:48:07.190Z,62.11
2019-02-19T11:49:06.934Z,60.68
2019-02-19T11:50:07.175Z,61.72
2019-02-19T11:51:07.173Z,62.3
2019-02-19T11:52:07.196Z,61.06
2019-02-19T11:53:07.169Z,60.93
2019-02-19T11:54:07.189Z,61.03
2019-02-19T11:55:06.921Z,61.6
2019-02-19T11:56:06.917Z,61.22
2019-02-19T11:57:07.194Z,61.32
2019-02-19T11:58:06.926Z,62.08
2019-02-19T11:59:08.677Z,62.75
2019-02-19T12:00:07.163Z,62.94
2019-02-19T12:01:07.148Z,63.48
2019-02-19T12:02:07.158Z,64.05
2019-02-19T12:03:07.143Z,63.76
2019-02-19T12:04:06.891Z,64.34
2019-02-19T12:05:07.150Z,64.72
2019-02-19T12:06:07.156Z,64.43
2019-02-19T12:07:07.197Z,64.81
2019-02-19T12:08:06.891Z,65.1
2019-02-19T12:09:07.146Z,65.2
2019-02-19T12:10:07.201Z,65.48
2019-02-19T12:11:06.891Z,66.12
2019-02-19T12:12:07.125Z,66.41
2019-02-19T12:13:07.139Z,66.6
2019-02-19T12:14:07.130Z,66.69
2019-02-19T12:15:06.877Z,66.78
2019-02-19T12:16:06.875Z,66.78
2019-02-19T12:17:07.127Z,67.46
2019-02-19T12:18:07.109Z,67.65
2019-02-19T12:19:07.112Z,67.46
2019-02-19T12:20:07.103Z,67.74
2019-02-19T12:21:07.097Z,67.36
2019-02-19T12:22:07.106Z,67.93
2019-02-19T12:23:07.101Z,67.83
2019-02-19T12:24:07.088Z,68.18
2019-02-19T12:25:07.082Z,68.38
2019-02-19T12:26:07.082Z,67.99
2019-02-19T12:27:08.834Z,68.79
2019-02-19T12:28:06.821Z,68.38
2019-02-19T12:29:07.077Z,68.88
2019-02-19T12:30:06.815Z,68.66
2019-02-19T12:31:06.831Z,68.95
2019-02-19T12:32:07.065Z,68.88
2019-02-19T12:33:07.054Z,68.79
2019-02-19T12:34:07.049Z,68.51
2019-02-19T12:35:07.050Z,68.76
2019-02-19T12:36:07.048Z,68.85
2019-02-19T12:37:07.036Z,68.95
2019-02-19T12:38:06.786Z,68.79
2019-02-19T12:39:07.031Z,68.98
2019-02-19T12:40:07.029Z,68.7
2019-02-19T12:41:07.050Z,68.79
2019-02-19T12:42:06.783Z,68.79
2019-02-19T12:43:06.783Z,68.7
2019-02-19T12:44:06.777Z,68.7
2019-02-19T12:45:07.016Z,68.98
2019-02-19T12:46:07.001Z,68.79
2019-02-19T12:47:07.057Z,69.08
2019-02-19T12:48:06.997Z,69.27
2019-02-19T12:49:06.992Z,69.74
2019-02-19T12:50:06.996Z,70.42
2019-02-19T12:51:07.003Z,69.56
2019-02-19T12:52:06.986Z,69.17
2019-02-19T12:53:06.986Z,69.17
2019-02-19T12:54:06.977Z,69.37
2019-02-19T12:55:06.733Z,69.84